Latest Weather Observations for Esperance

IDW60801

Issued at 12:33 pm WST Thursday 30 March 2017 (issued every 30 minutes, with the page automatically refreshed every 10 minutes)

About weather observations | Map of weather stations | Latest weather observations for WA | Other Formats
Station Details ID: 009789 Name: ESPERANCE Lat: -33.83 Lon: 121.89 Height: 25.0 m
Data from the previous 72 hours. | See also: Recent months at Esperance
Date/Time
WST
Temp
°C
App
Temp
°C
Dew
Point
°C
Rel
Hum
%
Delta-T
°C
Wind Press
QNH
hPa
Press
MSL
hPa
Rain since
9am
mm
Dir  Spd
km/h
Gust
km/h
Spd
kts
Gust
kts
30/12:00pm 20.6 16.9 4.4 34 7.8 NNW 13 17 7 9 1026.2 1026.1 0.0
30/11:30am 19.8 15.7 4.3 36 7.5 N 15 20 8 11 1026.8 1026.7 0.0
30/11:00am 19.9 16.3 4.8 37 7.3 N 13 20 7 11 1027.4 1027.3 0.0
30/10:30am 19.0 14.6 4.8 39 6.9 N 17 24 9 13 1027.6 1027.5 0.0
30/10:00am 18.4 14.1 5.1 41 6.4 N 17 24 9 13 1028.0 1027.9 0.0
30/09:30am 17.7 13.1 5.4 44 6.0 NNE 19 28 10 15 1028.4 1028.3 0.0
30/09:00am 16.6 13.1 5.5 48 5.3 NNE 13 17 7 9 1028.6 1028.5 0.0
30/08:30am 15.3 12.7 5.9 53 4.5 NNE 9 13 5 7 1028.9 1028.8 0.0
30/08:00am 13.7 11.1 6.3 61 3.5 N 9 13 5 7 1028.9 1028.8 0.0
30/07:30am 11.5 8.1 5.9 68 2.6 N 13 15 7 8 1028.8 1028.7 0.0
30/07:00am 10.0 7.0 6.1 77 1.8 N 11 13 6 7 1028.7 1028.6 0.0
30/06:30am 9.3 5.9 6.0 80 1.5 N 13 17 7 9 1028.7 1028.6 0.0
30/06:00am 9.2 5.5 6.1 81 1.4 N 15 19 8 10 1028.6 1028.5 0.0
30/05:30am 9.2 5.5 6.4 83 1.3 N 15 19 8 10 1028.5 1028.4 0.0
30/05:00am 9.5 5.9 6.7 83 1.3 N 15 19 8 10 1028.4 1028.3 0.0
30/04:30am 9.6 6.4 7.0 84 1.2 N 13 17 7 9 1028.3 1028.2 0.0
30/04:00am 9.9 6.7 6.7 80 1.5 N 13 17 7 9 1028.1 1028.0 0.0
30/03:30am 9.1 6.7 7.0 87 1.0 N 9 13 5 7 1028.0 1027.9 0.0
30/03:00am 10.6 8.8 7.2 79 1.6 NE 6 7 3 4 1027.7 1027.6 0.0
30/02:30am 11.3 8.8 6.6 73 2.2 NNE 9 9 5 5 1027.8 1027.7 0.0
30/02:00am 11.6 8.3 6.2 69 2.5 ENE 13 13 7 7 1027.9 1027.8 0.0
30/01:30am 11.7 9.6 6.8 72 2.3 NNE 7 9 4 5 1028.0 1027.9 0.0
30/01:00am 12.4 10.4 7.2 70 2.5 N 7 9 4 5 1028.1 1028.0 0.0
30/12:30am 13.4 11.3 6.5 63 3.3 NE 7 7 4 4 1028.2 1028.1 0.0
30/12:00am 13.6 11.4 6.0 60 3.6 NE 7 9 4 5 1028.4 1028.3 0.0
 
Date/Time
WST
Temp
°C
App
Temp
°C
Dew
Point
°C
Rel
Hum
%
Delta-T
°C
Wind Press
QNH
hPa
Press
MSL
hPa
Rain since
9am
mm
Dir  Spd
km/h
Gust
km/h
Spd
kts
Gust
kts
29/11:30pm 14.0 11.4 6.2 59 3.7 NE 9 11 5 6 1028.5 1028.4 0.0
29/11:00pm 14.3 12.3 7.1 62 3.5 NNE 7 7 4 4 1028.7 1028.6 0.0
29/10:30pm 14.5 12.2 5.8 56 4.1 NE 7 9 4 5 1028.7 1028.6 0.0
29/10:00pm 14.4 11.6 5.2 54 4.3 ENE 9 11 5 6 1028.8 1028.7 0.0
29/09:30pm 14.7 11.9 5.0 52 4.6 NE 9 13 5 7 1029.1 1029.0 0.0
29/09:00pm 15.2 11.8 4.1 47 5.1 ESE 11 17 6 9 1029.1 1029.0 0.0
29/08:30pm 15.4 11.3 4.1 47 5.2 ESE 15 22 8 12 1029.0 1028.9 0.0
29/08:00pm 15.6 11.1 4.4 47 5.2 SE 17 26 9 14 1028.8 1028.7 0.0
29/07:30pm 15.3 10.8 4.2 47 5.1 ESE 17 22 9 12 1028.3 1028.2 0.0
29/07:00pm 15.5 11.0 4.2 47 5.2 SE 17 22 9 12 1027.9 1027.8 0.0
29/06:30pm 15.4 10.4 3.5 45 5.4 SE 19 24 10 13 1027.6 1027.5 0.0
29/06:00pm 15.8 10.8 4.4 46 5.3 SSE 20 26 11 14 1027.5 1027.4 0.0
29/05:30pm 15.8 10.8 4.4 46 5.3 SSE 20 28 11 15 1027.6 1027.5 0.0
29/05:00pm 16.1 11.8 5.4 49 5.1 S 17 28 9 15 1027.4 1027.3 0.0
29/04:30pm 16.3 11.4 4.0 44 5.7 S 19 26 10 14 1027.2 1027.1 0.0
29/04:00pm 16.6 11.6 4.4 44 5.7 SSE 20 28 11 15 1026.9 1026.8 0.0
29/03:30pm 17.0 12.0 4.4 43 5.9 SSE 20 28 11 15 1026.8 1026.7 0.0
29/03:00pm 16.9 11.3 3.4 40 6.2 SSE 22 30 12 16 1026.8 1026.7 0.0
29/02:30pm 17.0 11.5 4.1 42 6.0 SSE 22 32 12 17 1026.5 1026.4 0.0
29/02:00pm 18.3 14.1 5.5 43 6.2 SSE 17 28 9 15 1026.5 1026.4 0.0
29/01:30pm 18.0 13.5 5.9 45 5.9 SSE 19 24 10 13 1026.4 1026.3 0.0
29/01:00pm 17.9 13.2 3.4 38 6.7 S 17 28 9 15 1026.6 1026.5 0.0
29/12:30pm 17.4 12.7 5.0 44 5.9 S 19 26 10 14 1026.6 1026.5 0.0
29/12:00pm 17.0 11.4 3.5 40 6.2 SSE 22 32 12 17 1026.8 1026.7 0.0
29/11:30am 17.9 12.4 4.0 39 6.5 S 22 32 12 17 1026.8 1026.7 0.0
29/11:00am 17.9 12.9 4.6 41 6.3 SSE 20 32 11 17 1026.9 1026.8 0.0
29/10:30am 17.7 12.6 4.3 41 6.3 S 20 33 11 18 1026.8 1026.7 0.0
29/10:00am 17.1 10.6 2.8 38 6.5 S 26 35 14 19 1026.7 1026.6 0.0
29/09:30am 17.4 11.4 3.6 40 6.4 S 24 35 13 19 1026.5 1026.4 0.0
29/09:00am 17.2 11.9 5.0 44 5.8 S 22 35 12 19 1026.0 1025.9 0.0
29/08:30am 15.8 11.0 5.8 51 4.8 S 20 30 11 16 1025.8 1025.7 0.0
29/08:00am 15.7 10.6 4.0 45 5.4 SSW 20 30 11 16 1025.2 1025.1 0.0
29/07:30am 15.5 10.2 3.1 43 5.6 S 20 30 11 16 1025.0 1024.9 0.0
29/07:00am 15.0 9.2 4.4 49 4.9 S 24 41 13 22 1024.3 1024.2 0.0
29/06:30am 15.4 10.4 4.4 48 5.1 SSW 20 32 11 17 1023.8 1023.7 0.0
29/06:00am 15.0 10.1 2.3 42 5.6 S 17 28 9 15 1023.6 1023.5 0.0
29/05:30am 15.2 9.0 2.3 42 5.7 SSW 24 41 13 22 1023.3 1023.2 0.0
29/05:00am 15.1 8.9 2.2 41 5.7 S 24 43 13 23 1023.2 1023.1 0.0
29/04:30am 15.3 10.0 4.8 49 4.9 S 22 35 12 19 1022.6 1022.5 0.0
29/04:00am 15.1 9.1 3.4 45 5.3 S 24 37 13 20 1022.1 1022.0 0.0
29/03:50am 15.5 8.4 1.2 38 6.2 SSW 28 46 15 25 1021.9 1021.8 0.0
29/03:30am 15.8 10.4 6.3 53 4.6 S 24 41 13 22 1021.6 1021.5 0.0
29/03:00am 15.8 8.9 2.4 40 6.0 SSW 28 39 15 21 1021.1 1021.0 0.0
29/02:30am 15.8 9.1 3.9 45 5.5 SSW 28 44 15 24 1020.9 1020.8 0.0
29/02:00am 16.1 11.0 7.7 57 4.2 SSW 24 39 13 21 1020.8 1020.7 0.0
29/01:30am 16.0 10.8 5.5 49 5.0 SSW 22 37 12 20 1020.6 1020.5 0.0
29/01:00am 16.4 10.6 6.3 51 4.9 SSW 26 43 14 23 1020.4 1020.3 0.0
29/12:30am 16.6 11.1 7.4 54 4.6 SSW 26 37 14 20 1019.9 1019.8 0.0
29/12:00am 16.7 11.2 7.5 54 4.6 SW 26 43 14 23 1019.6 1019.5 0.0
 
Date/Time
WST
Temp
°C
App
Temp
°C
Dew
Point
°C
Rel
Hum
%
Delta-T
°C
Wind Press
QNH
hPa
Press
MSL
hPa
Rain since
9am
mm
Dir  Spd
km/h
Gust
km/h
Spd
kts
Gust
kts
28/11:30pm 16.8 11.7 9.3 61 3.9 SSW 26 39 14 21 1019.3 1019.2 0.0
28/11:00pm 16.4 12.7 11.6 73 2.6 SSW 22 35 12 19 1019.0 1018.9 0.0
28/10:32pm 16.6 12.0 12.4 76 2.3 SSW 28 46 15 25 1018.8 1018.7 0.0
28/10:30pm 16.7 12.0 11.9 73 2.6 SSW 28 43 15 23 1018.8 1018.7 0.0
28/10:16pm 17.0 12.5 12.7 76 2.4 SSW 28 48 15 26 1018.6 1018.5 0.0
28/10:00pm 16.9 13.2 12.8 77 2.3 SSW 24 41 13 22 1018.7 1018.6 0.0
28/09:30pm 16.5 13.2 14.0 85 1.4 SSW 24 35 13 19 1018.5 1018.4 0.0
28/09:00pm 17.3 13.9 13.8 80 2.0 SSW 24 41 13 22 1018.3 1018.2 0.0
28/08:30pm 17.7 15.0 13.4 76 2.4 SW 20 30 11 16 1017.9 1017.8 0.0
28/08:00pm 18.0 14.8 13.0 72 2.8 SW 22 32 12 17 1017.4 1017.3 0.0
28/07:30pm 17.8 15.2 12.0 69 3.2 SW 17 30 9 16 1016.9 1016.8 0.0
28/07:00pm 18.1 14.7 12.5 70 3.1 SW 22 33 12 18 1016.6 1016.5 0.0
28/06:30pm 18.0 15.6 12.6 70 3.0 SW 17 30 9 16 1016.2 1016.1 0.0
28/06:00pm 18.3 15.8 12.2 67 3.4 SW 17 24 9 13 1016.2 1016.1 0.0
28/05:30pm 18.8 16.0 12.5 67 3.5 SW 19 28 10 15 1016.1 1016.0 0.0
28/05:00pm 19.4 15.8 11.8 61 4.2 SW 22 35 12 19 1015.7 1015.6 0.0
28/04:30pm 19.9 16.2 11.6 58 4.6 SW 22 35 12 19 1015.1 1015.1 0.0
28/04:00pm 20.6 16.3 10.7 53 5.4 SW 24 37 13 20 1015.0 1015.0 0.0
28/03:30pm 20.6 16.0 11.1 54 5.2 WSW 26 43 14 23 1014.8 1014.8 0.0
28/03:00pm 20.7 17.2 12.1 58 4.8 WSW 22 35 12 19 1014.8 1014.8 0.0
28/02:30pm 20.4 16.6 11.3 56 5.0 WSW 22 37 12 20 1014.8 1014.8 0.0
28/02:00pm 20.6 16.5 11.6 56 5.0 WSW 24 37 13 20 1015.0 1015.0 0.0
28/01:30pm 20.5 16.9 11.9 57 4.8 WSW 22 33 12 18 1015.2 1015.2 0.0
28/01:00pm 20.8 17.0 11.2 54 5.3 WSW 22 35 12 19 1015.5 1015.4 0.0
28/12:30pm 21.2 17.6 11.9 55 5.2 WSW 22 35 12 19 1015.7 1015.6 0.0
28/12:00pm 21.1 18.5 12.0 56 5.1 WSW 17 26 9 14 1015.8 1015.7 0.0
28/11:30am 20.6 18.5 12.4 59 4.6 SW 15 24 8 13 1016.0 1015.9 0.0
28/11:00am 20.6 18.4 12.0 57 4.8 WSW 15 22 8 12 1016.3 1016.2 0.0
28/10:30am 21.0 19.1 11.9 56 5.1 W 13 20 7 11 1016.5 1016.4 0.0
28/10:00am 19.9 18.1 12.2 61 4.3 WNW 13 20 7 11 1017.0 1016.9 0.0
28/09:30am 18.5 16.8 12.4 67 3.4 WNW 13 19 7 10 1017.1 1017.0 0.0
28/09:00am 17.6 15.7 12.9 74 2.6 NW 15 20 8 11 1017.5 1017.4 0.0
28/08:42am 16.9 14.9 12.8 77 2.3 NW 15 20 8 11 1017.5 1017.4 0.0
28/08:30am 16.4 14.8 12.8 79 2.0 NW 13 19 7 10 1017.4 1017.3 0.0
28/08:00am 14.6 12.8 12.0 84 1.4 WNW 13 17 7 9 1017.5 1017.4 0.0
28/07:30am 13.0 11.0 11.5 91 0.8 WNW 13 17 7 9 1017.5 1017.4 0.0
28/07:00am 12.4 10.7 11.1 92 0.7 WNW 11 15 6 8 1017.3 1017.2 0.0
28/06:40am 12.1 10.8 11.1 94 0.5 W 9 13 5 7 1017.4 1017.3 0.0
28/06:30am 12.5 10.9 11.6 94 0.5 NW 11 13 6 7 1017.4 1017.3 0.0
28/06:16am 12.7 10.7 11.6 93 0.6 NNW 13 17 7 9 1017.3 1017.2 0.0
28/06:00am 12.4 11.2 11.5 94 0.5 NW 9 15 5 8 1017.2 1017.1 0.0
28/05:30am 12.3 10.6 11.3 94 0.5 N 11 13 6 7 1017.2 1017.1 0.0
28/05:21am 12.1 10.4 11.1 94 0.5 NNW 11 13 6 7 1017.2 1017.1 0.0
28/05:00am 11.7 10.0 11.1 96 0.3 NNW 11 13 6 7 1017.2 1017.1 0.0
28/04:30am 11.8 10.5 11.2 96 0.3 N 9 11 5 6 1017.4 1017.3 0.0
28/04:00am 11.8 10.5 11.2 96 0.3 NNE 9 11 5 6 1017.5 1017.4 0.0
28/03:30am 11.1 9.6 10.5 96 0.3 NW 9 11 5 6 1017.7 1017.6 0.0
28/03:00am 11.1 10.0 10.5 96 0.3 W 7 7 4 4 1017.7 1017.6 0.0
28/02:30am 11.2 10.1 10.6 96 0.3 NW 7 9 4 5 1017.8 1017.7 0.0
28/02:00am 11.6 10.5 10.6 94 0.5 WNW 7 9 4 5 1018.0 1017.9 0.0
28/01:30am 12.1 11.3 11.1 94 0.5 WNW 6 7 3 4 1018.2 1018.1 0.0
28/01:00am 12.3 11.4 11.3 94 0.5 WNW 7 9 4 5 1018.1 1018.0 0.0
28/12:30am 12.4 12.1 11.5 94 0.5 NNW 4 6 2 3 1018.1 1018.0 0.0
28/12:00am 12.8 12.1 12.1 95 0.4 NNW 7 9 4 5 1018.3 1018.2 0.0
 
Date/Time
WST
Temp
°C
App
Temp
°C
Dew
Point
°C
Rel
Hum
%
Delta-T
°C
Wind Press
QNH
hPa
Press
MSL
hPa
Rain since
9am
mm
Dir  Spd
km/h
Gust
km/h
Spd
kts
Gust
kts
27/11:30pm 12.8 11.7 12.1 95 0.4 N 9 9 5 5 1018.2 1018.1 0.0
27/11:00pm 13.5 13.0 12.6 94 0.5 NNW 7 9 4 5 1018.4 1018.3 0.0
27/10:30pm 14.1 13.8 12.8 92 0.7 NW 6 7 3 4 1018.7 1018.6 0.0
27/10:00pm 14.1 13.7 13.0 93 0.6 NW 7 9 4 5 1018.9 1018.8 0.0
27/09:30pm 14.4 14.0 12.9 91 0.8 NW 7 7 4 4 1019.0 1018.9 0.0
27/09:00pm 15.2 15.0 13.6 90 0.9 WNW 7 7 4 4 1019.1 1019.0 0.0
27/08:30pm 15.2 15.0 13.0 87 1.2 WNW 6 7 3 4 1019.1 1019.0 0.0
27/08:00pm 15.4 15.0 12.3 82 1.7 SW 6 7 3 4 1019.1 1019.0 0.0
27/07:30pm 16.7 16.3 12.3 75 2.4 SW 6 7 3 4 1019.1 1019.0 0.0
27/07:00pm 16.6 15.9 12.0 74 2.5 SSW 7 7 4 4 1018.9 1018.8 0.0
27/06:30pm 17.0 16.2 11.7 71 2.9 SSW 7 9 4 5 1018.6 1018.5 0.0
27/06:00pm 17.4 16.2 11.5 68 3.2 SSW 9 11 5 6 1018.7 1018.6 0.0
27/05:30pm 18.1 16.0 11.3 64 3.7 SSW 13 19 7 10 1018.7 1018.6 0.0
27/05:00pm 18.5 16.1 11.3 63 3.9 SSW 15 24 8 13 1018.6 1018.5 0.0
27/04:30pm 19.0 16.6 11.5 61 4.1 SSW 15 22 8 12 1018.4 1018.3 0.0
27/04:00pm 19.4 16.2 9.8 53 5.1 SSW 17 24 9 13 1018.5 1018.4 0.0
27/03:30pm 20.2 17.8 9.9 51 5.5 SW 13 22 7 12 1018.8 1018.7 0.0
27/03:00pm 20.4 17.8 9.5 49 5.8 WSW 13 19 7 10 1018.9 1018.8 0.0
27/02:30pm 20.5 17.8 8.9 47 6.1 WSW 13 20 7 11 1019.2 1019.1 0.0
27/02:00pm 20.5 17.8 8.9 47 6.1 WSW 13 22 7 12 1019.2 1019.1 0.0
27/01:30pm 19.8 17.0 8.7 48 5.8 SW 13 20 7 11 1019.6 1019.5 0.0
27/01:00pm 19.5 16.3 8.5 49 5.7 WSW 15 22 8 12 1020.1 1020.0 0.0

Other Formats:

Comma delimited format used in spreadsheet applications
http://www.bom.gov.au/fwo/IDW60801/IDW60801.94638.axf

JavaScript Object Notation format (JSON) in row-major order
http://www.bom.gov.au/fwo/IDW60801/IDW60801.94638.json